Time;durP1;ratioP1;P1;durP2;ratioP2;P2;SDS_P1;SDS_P2;PMS_P1;PMS_P2;Temp;Humidity;BMP_temperature;BMP_pressure;BME280_temperature;BME280_humidity;BME280_pressure;Samples;Min_cycle;Max_cycle;Signal;HPM_P1;HPM_P2
2023/10/01 00:07:56;;;;;;;;;;;;;;;19.67;84.61;102026.13;20814484;28;20136;-66
2023/10/01 00:17:58;;;;;;;3.22;2.28;;;;;;;19.62;84.47;102012.97;20808548;28;19928;-66
2023/10/01 00:28:00;;;;;;;4.72;2.65;;;;;;;19.60;84.32;102030.28;20820320;28;20429;-66
2023/10/01 00:38:02;;;;;;;3.40;2.05;;;;;;;19.57;84.23;102028.69;20808998;28;20061;-66
2023/10/01 00:48:06;;;;;;;4.78;2.60;;;;;;;19.54;84.27;102008.19;20837280;28;20053;-66
2023/10/01 00:58:10;;;;;;;;;;;;;;;19.52;84.02;102012.84;20816737;28;20049;-66
2023/10/01 01:08:22;;;;;;;5.78;2.90;;;;;;;19.50;84.03;102012.13;20793582;28;19936;-66
2023/10/01 01:18:26;;;;;;;3.80;2.38;;;;;;;19.52;83.68;101996.66;20815422;28;20394;-66
2023/10/01 01:28:32;;;;;;;4.88;2.50;;;;;;;19.53;83.50;102001.06;20810590;28;20041;-66
2023/10/01 01:38:34;;;;;;;;;;;;;;;19.52;83.56;101976.88;20800962;28;20064;-66
2023/10/01 01:48:40;;;;;;;3.78;2.20;;;;;;;19.47;83.48;101963.75;20779936;28;19929;-66
2023/10/01 01:58:47;;;;;;;3.72;2.67;;;;;;;19.47;83.37;101952.94;20787106;28;20051;-66
2023/10/01 02:08:53;;;;;;;3.63;2.38;;;;;;;19.47;83.54;101965.56;20794720;28;20128;-66
2023/10/01 02:19:17;;;;;;;3.20;2.30;;;;;;;19.43;83.63;101962.22;20807041;28;20046;-66
2023/10/01 02:29:24;;;;;;;5.22;3.03;;;;;;;19.45;83.33;101971.09;20787403;28;20540;-66
2023/10/01 02:39:28;;;;;;;4.63;2.80;;;;;;;19.44;83.18;101953.16;20807715;28;20126;-66
2023/10/01 02:49:32;;;;;;;4.87;2.60;;;;;;;19.44;83.29;101946.91;20801321;28;20128;-66
2023/10/01 02:59:36;;;;;;;4.70;2.57;;;;;;;19.39;83.48;101933.75;20818702;28;20052;-66
2023/10/01 03:09:40;;;;;;;4.20;2.47;;;;;;;19.35;83.38;101926.88;20800998;28;20136;-66
2023/10/01 03:19:45;;;;;;;4.60;2.97;;;;;;;19.34;83.52;101925.16;20808167;28;20045;-66
2023/10/01 03:30:00;;;;;;;3.38;2.50;;;;;;;19.31;83.39;101931.69;20797808;28;20096;-66
2023/10/01 03:40:14;;;;;;;4.18;2.72;;;;;;;19.27;83.36;101920.25;20810640;28;20045;-66
2023/10/01 03:50:21;;;;;;;2.83;2.30;;;;;;;19.27;83.25;101908.59;20813337;28;20037;-66
2023/10/01 04:00:32;;;;;;;4.22;2.42;;;;;;;19.20;83.18;101894.72;20814668;28;20055;-66
2023/10/01 04:10:35;;;;;;;3.90;2.58;;;;;;;19.25;83.24;101889.81;20824547;28;20068;-66
2023/10/01 04:20:37;;;;;;;4.45;2.67;;;;;;;19.25;82.96;101884.41;20813615;28;20061;-66
2023/10/01 04:30:44;;;;;;;4.22;2.88;;;;;;;19.25;82.88;101894.38;20815207;28;20080;-66
2023/10/01 04:40:48;;;;;;;3.60;2.65;;;;;;;19.24;83.01;101893.50;20808783;28;20417;-66
2023/10/01 04:50:55;;;;;;;3.90;2.72;;;;;;;19.24;82.54;101888.09;20794717;28;20049;-66
2023/10/01 05:00:57;;;;;;;4.50;2.85;;;;;;;19.23;82.43;101875.59;20794054;28;20102;-66
2023/10/01 05:11:00;;;;;;;3.53;2.70;;;;;;;19.25;82.49;101888.97;20794687;28;20519;-66
2023/10/01 05:21:04;;;;;;;4.78;2.38;;;;;;;19.15;82.19;101878.03;20799787;28;20596;-66
2023/10/01 05:31:06;;;;;;;2.83;2.47;;;;;;;19.22;82.05;101889.19;20789361;28;20138;-66
2023/10/01 05:41:13;;;;;;;4.10;2.15;;;;;;;19.22;82.02;101894.59;20808128;28;20045;-66
2023/10/01 05:51:15;;;;;;;4.32;2.65;;;;;;;19.12;81.82;101889.06;20826305;28;20483;-66
2023/10/01 06:01:21;;;;;;;3.53;2.50;;;;;;;19.23;81.89;101897.19;20822495;28;20045;-66
2023/10/01 06:11:38;;;;;;;4.95;3.03;;;;;;;19.18;81.58;101879.63;20857544;28;20417;-66
2023/10/01 06:21:41;;;;;;;4.63;2.90;;;;;;;19.26;81.61;101912.28;20830616;28;20478;-66
2023/10/01 06:32:00;;;;;;;4.55;3.00;;;;;;;19.20;81.46;101901.94;20812939;28;20049;-66
2023/10/01 06:42:23;;;;;;;3.28;2.35;;;;;;;19.27;81.34;101914.84;20821901;28;20115;-66
2023/10/01 06:52:27;;;;;;;4.55;2.63;;;;;;;19.27;81.57;101920.25;20785182;28;20061;-66
2023/10/01 07:02:29;;;;;;;5.10;2.97;;;;;;;19.31;81.73;101918.19;20807503;28;20054;-66
2023/10/01 07:12:31;;;;;;;4.72;3.30;;;;;;;19.24;82.83;101916.94;20792203;28;20083;-65
2023/10/01 07:22:38;;;;;;;5.32;2.70;;;;;;;19.26;83.13;101901.50;20794968;28;20057;-64
2023/10/01 07:32:41;;;;;;;6.03;2.90;;;;;;;19.42;82.95;101917.31;20806565;28;20080;-66
2023/10/01 07:42:54;;;;;;;4.53;2.88;;;;;;;19.61;82.85;101910.47;20798118;28;20057;-64
2023/10/01 07:53:03;;;;;;;5.03;2.80;;;;;;;19.76;82.52;101903.81;20792948;28;20123;-63
2023/10/01 08:13:25;;;;;;;5.32;2.78;;;;;;;20.00;81.59;101916.34;20821236;28;20061;-65
2023/10/01 08:23:33;;;;;;;9.90;2.95;;;;;;;20.08;81.20;101913.88;20815751;28;20623;-64
2023/10/01 08:33:42;;;;;;;4.85;2.90;;;;;;;20.14;80.80;101912.53;20817138;28;20041;-65
2023/10/01 08:43:44;;;;;;;4.65;2.55;;;;;;;20.17;80.73;101912.25;20846424;28;20053;-65
2023/10/01 08:53:46;;;;;;;4.43;2.58;;;;;;;20.27;80.64;101912.34;20807976;28;20045;-64
2023/10/01 09:03:48;;;;;;;6.03;2.70;;;;;;;20.42;80.63;101919.19;20826902;28;20060;-64
2023/10/01 09:14:14;;;;;;;4.65;3.00;;;;;;;20.65;79.91;101894.72;20819728;28;20060;-64
2023/10/01 09:24:39;;;;;;;5.03;2.75;;;;;;;21.00;78.33;101879.22;20795342;28;20084;-65
2023/10/01 09:34:53;;;;;;;6.43;3.20;;;;;;;21.30;77.36;101866.66;20794601;28;20056;-64
2023/10/01 09:45:09;;;;;;;5.47;2.93;;;;;;;21.20;76.61;101838.69;20798034;28;20464;-64
2023/10/01 09:55:23;;;;;;;7.25;3.17;;;;;;;21.67;76.61;101889.69;20794545;28;20060;-65
2023/10/01 10:05:26;;;;;;;4.35;2.45;;;;;;;21.88;75.98;101884.19;20799669;28;20050;-65
2023/10/01 10:15:54;;;;;;;4.95;2.80;;;;;;;21.83;76.24;101884.59;20801915;28;20045;-65
2023/10/01 10:26:13;;;;;;;4.00;2.50;;;;;;;21.75;76.33;101881.72;20812595;28;20053;-65
2023/10/01 10:36:50;;;;;;;4.95;2.72;;;;;;;21.65;76.83;101880.81;20819647;28;20056;-65
2023/10/01 10:47:02;;;;;;;5.70;2.78;;;;;;;21.67;76.95;101895.94;20797107;28;20089;-65
2023/10/01 10:57:06;;;;;;;4.10;2.63;;;;;;;21.86;76.41;101894.28;20805731;28;20060;-65
2023/10/01 11:07:08;;;;;;;6.35;3.25;;;;;;;21.87;76.26;101886.03;20827454;28;20494;-65
2023/10/01 11:17:13;;;;;;;5.60;2.80;;;;;;;21.86;76.23;101884.31;20821179;28;20128;-65
2023/10/01 11:37:45;;;;;;;4.70;2.70;;;;;;;22.04;75.97;101871.94;20829039;28;20142;-65
2023/10/01 11:48:04;;;;;;;5.53;2.80;;;;;;;22.05;76.29;101870.94;20832944;28;20049;-65
2023/10/01 11:58:07;;;;;;;4.05;2.53;;;;;;;22.00;76.25;101850.53;20816421;28;20045;-65
2023/10/01 12:08:17;;;;;;;4.47;2.83;;;;;;;21.99;76.69;101842.50;20798103;28;20191;-65
2023/10/01 12:18:19;;;;;;;5.40;3.28;;;;;;;22.02;76.67;101834.09;20798534;28;22188;-65
2023/10/01 12:28:28;;;;;;;4.45;2.78;;;;;;;22.02;76.83;101826.84;20798729;28;20054;-65
2023/10/01 12:38:30;;;;;;;5.78;3.13;;;;;;;22.00;77.05;101827.97;20812295;28;20048;-63
2023/10/01 12:48:32;;;;;;;5.85;3.45;;;;;;;22.05;77.41;101817.53;20808093;28;20053;-64
2023/10/01 12:58:36;;;;;;;7.15;3.38;;;;;;;22.07;77.87;101806.56;20819605;28;20148;-64
2023/10/01 13:08:41;;;;;;;7.03;3.22;;;;;;;22.06;77.95;101808.41;20820658;28;20064;-66
2023/10/01 13:18:43;;;;;;;5.20;3.03;;;;;;;22.12;77.86;101801.56;20819099;28;20053;-65
2023/10/01 13:28:49;;;;;;;9.15;3.40;;;;;;;22.06;78.39;101808.41;20824640;28;20052;-65
2023/10/01 13:39:13;;;;;;;5.65;3.25;;;;;;;21.98;78.72;101789.28;20819055;28;20075;-64
2023/10/01 14:09:55;;;;;;;4.57;3.20;;;;;;;21.99;78.93;101791.00;20807231;28;20045;-63
2023/10/01 14:19:57;;;;;;;7.47;3.40;;;;;;;21.98;79.31;101767.59;20806880;28;20072;-62
2023/10/01 14:30:23;;;;;;;5.57;3.03;;;;;;;21.93;79.24;101769.88;20809947;28;20045;-62
2023/10/01 14:40:27;;;;;;;6.43;3.40;;;;;;;21.84;79.58;101742.63;20818274;28;20493;-63
2023/10/01 14:50:29;;;;;;;7.32;3.42;;;;;;;21.79;80.04;101747.63;20827895;28;20395;-62
2023/10/01 15:00:32;;;;;;;5.28;3.20;;;;;;;21.79;80.08;101742.22;20796250;28;20119;-63
2023/10/01 15:10:34;;;;;;;5.27;3.20;;;;;;;21.80;80.52;101738.50;20789066;28;20061;-64
2023/10/01 15:20:47;;;;;;;5.68;3.55;;;;;;;21.80;80.74;101743.91;20791808;28;20104;-63
2023/10/01 15:30:49;;;;;;;9.52;3.38;;;;;;;21.82;81.08;101741.91;20794670;28;20056;-62
2023/10/01 15:40:52;;;;;;;5.35;3.55;;;;;;;21.83;81.09;101732.78;20786936;28;20093;-62
2023/10/01 15:51:02;;;;;;;7.00;4.10;;;;;;;21.79;81.55;101731.38;20801875;28;20051;-63
2023/10/01 16:01:04;;;;;;;6.00;3.58;;;;;;;21.77;82.10;101710.81;20811947;28;20486;-67
2023/10/01 16:11:06;;;;;;;6.15;3.50;;;;;;;21.74;82.55;101722.81;20803753;28;20179;-65
2023/10/01 16:21:11;;;;;;;7.93;4.80;;;;;;;21.67;86.71;101721.66;20830327;28;20076;-68
2023/10/01 16:31:17;;;;;;;7.13;4.32;;;;;;;21.61;86.36;101728.47;20819638;28;20158;-67
2023/10/01 16:41:20;;;;;;;9.38;6.38;;;;;;;21.56;94.92;101731.59;20792418;28;20041;-67
2023/10/01 16:51:23;;;;;;;7.18;5.03;;;;;;;21.68;94.99;101734.22;20792057;28;20070;-70
2023/10/01 17:01:26;;;;;;;7.43;4.90;;;;;;;21.69;93.85;101739.47;20820730;28;20049;-70
2023/10/01 17:11:29;;;;;;;6.67;4.57;;;;;;;21.65;93.52;101750.72;20806125;28;20045;-71
2023/10/01 17:21:38;;;;;;;8.07;5.00;;;;;;;21.56;92.86;101747.84;20791169;28;20106;-69
2023/10/01 17:31:39;;;;;;;8.95;4.82;;;;;;;21.47;93.79;101750.56;20804570;28;20518;-65
2023/10/01 17:41:42;;;;;;;7.70;4.85;;;;;;;21.40;93.49;101736.69;20807875;28;20056;-66
2023/10/01 17:51:44;;;;;;;7.22;4.18;;;;;;;21.36;92.85;101741.53;20853669;28;20053;-66
2023/10/01 18:02:04;;;;;;;7.03;4.05;;;;;;;21.33;92.90;101743.69;20844043;28;20568;-66
2023/10/01 18:12:13;;;;;;;6.18;3.72;;;;;;;21.29;92.19;101746.66;20825838;28;20559;-65
2023/10/01 18:22:25;;;;;;;7.07;4.10;;;;;;;21.20;91.79;101738.50;20827163;28;20133;-66
2023/10/01 18:32:27;;;;;;;8.57;4.43;;;;;;;21.12;91.67;101750.88;20812588;28;20041;-65
2023/10/01 18:42:29;;;;;;;7.60;4.35;;;;;;;21.06;91.85;101758.69;20858358;28;20102;-66
2023/10/01 18:52:31;;;;;;;8.15;4.57;;;;;;;20.94;91.70;101747.97;20860620;28;20053;-66
2023/10/01 19:02:34;;;;;;;7.22;4.28;;;;;;;20.93;91.67;101762.50;20809951;28;20132;-66
2023/10/01 19:12:35;;;;;;;6.95;4.25;;;;;;;20.88;91.80;101763.88;20821506;28;20050;-66
2023/10/01 19:22:37;;;;;;;8.00;4.35;;;;;;;20.79;91.99;101768.28;20799202;28;20045;-66
2023/10/01 19:32:54;;;;;;;6.50;4.22;;;;;;;20.75;92.13;101769.47;20853163;28;20138;-65
2023/10/01 19:43:00;;;;;;;7.35;4.35;;;;;;;20.66;92.47;101749.50;20802767;28;20136;-66
2023/10/01 19:53:17;;;;;;;9.65;4.90;;;;;;;20.60;92.87;101745.47;20849660;28;20129;-65
2023/10/01 20:03:23;;;;;;;8.82;5.90;;;;;;;20.55;95.99;101745.91;20867728;28;20049;-65
2023/10/01 20:13:31;;;;;;;10.60;5.55;;;;;;;20.41;98.30;101720.03;20816147;28;20056;-65
2023/10/01 20:23:37;;;;;;;11.45;6.28;;;;;;;20.41;98.04;101736.28;20845209;28;20490;-66
2023/10/01 20:33:40;;;;;;;10.18;5.43;;;;;;;20.35;98.14;101717.88;20828801;28;20061;-65
2023/10/01 20:43:43;;;;;;;8.60;5.38;;;;;;;20.33;97.60;101722.56;20816340;28;20060;-65
2023/10/01 20:53:46;;;;;;;10.02;5.13;;;;;;;20.26;97.23;101700.59;20860083;28;20125;-66
2023/10/01 21:03:48;;;;;;;8.57;5.45;;;;;;;20.31;96.86;101693.94;20803826;28;20045;-65
2023/10/01 21:13:56;;;;;;;9.27;5.68;;;;;;;20.28;96.86;101686.91;20796220;28;20516;-66
2023/10/01 21:24:00;;;;;;;9.18;4.95;;;;;;;20.26;96.96;101683.50;20866334;28;20052;-65
2023/10/01 21:34:15;;;;;;;8.30;4.77;;;;;;;20.23;96.89;101690.03;20860594;28;20143;-66
2023/10/01 21:44:26;;;;;;;8.63;5.20;;;;;;;20.21;96.63;101686.63;20848739;28;20132;-65
2023/10/01 21:54:29;;;;;;;9.20;4.82;;;;;;;20.23;96.50;101691.88;20826532;28;20050;-66
2023/10/01 22:04:32;;;;;;;7.75;4.68;;;;;;;20.21;96.56;101700.13;20842876;28;20053;-65
2023/10/01 22:14:37;;;;;;;9.10;5.43;;;;;;;20.19;96.60;101702.13;20831317;28;20057;-66
2023/10/01 22:24:40;;;;;;;7.10;4.90;;;;;;;20.17;96.45;101695.09;20811766;28;20073;-65
2023/10/01 22:34:56;;;;;;;9.00;5.28;;;;;;;20.17;96.24;101685.16;20832940;28;20053;-65
2023/10/01 22:45:06;;;;;;;7.07;4.72;;;;;;;20.17;96.06;101687.00;20813656;28;20056;-65
2023/10/01 22:55:09;;;;;;;8.52;5.22;;;;;;;20.16;95.92;101683.47;20818749;28;20055;-65
2023/10/01 23:05:11;;;;;;;8.13;4.63;;;;;;;20.14;95.70;101672.75;20855655;28;20107;-65
2023/10/01 23:15:13;;;;;;;8.45;5.22;;;;;;;20.13;95.68;101679.16;20816366;28;20057;-66
2023/10/01 23:25:17;;;;;;;8.50;5.00;;;;;;;20.12;95.56;101672.03;20873349;28;20107;-65
2023/10/01 23:35:43;;;;;;;8.93;5.57;;;;;;;20.11;95.24;101667.63;20885255;28;20140;-65
2023/10/01 23:46:00;;;;;;;8.57;5.20;;;;;;;20.09;95.19;101656.09;20842139;28;20049;-66
2023/10/01 23:56:13;;;;;;;8.65;4.97;;;;;;;20.06;94.95;101664.47;20866479;28;20059;-65
